createdAt,value
2019-04-22T00:04:33.856Z,6.27
2019-04-22T00:09:46.143Z,6.30
2019-04-22T00:14:33.767Z,7.27
2019-04-22T00:19:35.989Z,4.40
2019-04-22T00:24:32.107Z,5.27
2019-04-22T00:34:25.463Z,7.10
2019-04-22T00:39:28.371Z,4.43
2019-04-22T00:44:29.826Z,6.33
2019-04-22T00:54:05.953Z,6.33
2019-04-22T00:59:08.462Z,7.97
2019-04-22T01:13:55.299Z,7.13
2019-04-22T01:18:55.175Z,5.53
2019-04-22T01:23:49.089Z,6.30
2019-04-22T01:28:43.403Z,5.60
2019-04-22T01:33:33.091Z,6.17
2019-04-22T01:38:47.711Z,7.20
2019-04-22T01:43:52.118Z,5.00
2019-04-22T01:48:39.504Z,5.80
2019-04-22T01:53:42.388Z,5.33
2019-04-22T01:58:31.169Z,9.07
2019-04-22T02:03:36.020Z,8.63
2019-04-22T02:08:33.122Z,7.47
2019-04-22T02:13:21.958Z,6.50
2019-04-22T02:18:26.095Z,6.27
2019-04-22T02:23:47.302Z,7.03
2019-04-22T02:28:32.587Z,9.03
2019-04-22T02:38:34.128Z,5.87
2019-04-22T02:43:41.110Z,5.83
2019-04-22T02:48:26.642Z,4.97
2019-04-22T02:53:14.447Z,7.77
2019-04-22T02:58:07.995Z,8.80
2019-04-22T03:08:06.764Z,5.50
2019-04-22T03:12:51.961Z,5.83
2019-04-22T03:17:52.115Z,6.90
2019-04-22T03:22:47.031Z,6.67
2019-04-22T03:27:47.834Z,7.13
2019-04-22T03:37:49.390Z,5.03
2019-04-22T03:42:50.247Z,5.83
2019-04-22T03:47:41.254Z,7.10
2019-04-22T03:57:44.666Z,6.33
2019-04-22T04:02:28.992Z,5.90
2019-04-22T04:07:38.335Z,6.17
2019-04-22T04:12:25.928Z,8.53
2019-04-22T04:17:29.361Z,7.53
2019-04-22T04:22:27.014Z,5.73
2019-04-22T04:27:18.301Z,4.87
2019-04-22T04:32:18.778Z,5.40
2019-04-22T04:37:32.738Z,7.73
2019-04-22T04:42:09.459Z,5.10
2019-04-22T04:51:51.291Z,6.83
2019-04-22T04:56:39.909Z,5.37
2019-04-22T05:01:46.758Z,9.00
2019-04-22T05:06:43.206Z,4.87
2019-04-22T05:21:36.358Z,7.37
2019-04-22T05:26:26.089Z,7.00
2019-04-22T05:31:15.804Z,5.87
2019-04-22T05:36:13.082Z,7.83
2019-04-22T05:41:02.758Z,9.83
2019-04-22T05:46:00.750Z,10.43
2019-04-22T05:50:59.847Z,12.27
2019-04-22T05:55:56.892Z,13.27
2019-04-22T06:01:29.108Z,14.40
2019-04-22T06:06:00.879Z,14.23
2019-04-22T06:11:05.741Z,12.70
2019-04-22T06:15:59.057Z,10.23
2019-04-22T06:20:59.419Z,6.73
2019-04-22T06:30:57.544Z,6.30
2019-04-22T06:35:54.590Z,5.67
2019-04-22T06:40:46.521Z,6.07
2019-04-22T06:45:41.382Z,6.17
2019-04-22T06:50:41.643Z,4.23
2019-04-22T06:55:41.307Z,5.63
2019-04-22T07:00:38.098Z,4.80
2019-04-22T07:05:32.803Z,7.23
2019-04-22T07:10:35.247Z,5.30
2019-04-22T07:15:42.147Z,7.77
2019-04-22T07:20:27.245Z,5.73
2019-04-22T07:25:15.852Z,6.10
2019-04-22T07:35:19.536Z,6.80
2019-04-22T07:40:11.938Z,6.43
2019-04-22T07:45:08.389Z,6.53
2019-04-22T07:50:05.795Z,6.30
2019-04-22T07:54:56.935Z,5.53
2019-04-22T07:59:57.316Z,5.37
2019-04-22T08:09:59.746Z,4.30
2019-04-22T08:14:50.430Z,8.30
2019-04-22T08:19:44.730Z,4.57
2019-04-22T08:29:37.706Z,5.57
2019-04-22T08:34:29.541Z,4.77
2019-04-22T08:39:25.612Z,5.27
2019-04-22T08:44:37.743Z,5.10
2019-04-22T08:49:16.143Z,6.73
2019-04-22T08:54:18.310Z,5.77
2019-04-22T08:59:22.183Z,5.43
2019-04-22T09:04:05.721Z,4.23
2019-04-22T09:09:09.104Z,4.90
2019-04-22T09:14:04.500Z,5.33
2019-04-22T09:19:01.993Z,6.70
2019-04-22T09:24:02.268Z,4.87
2019-04-22T09:28:54.887Z,4.75
2019-04-22T09:33:43.335Z,8.28
2019-04-22T09:38:41.022Z,4.97
2019-04-22T09:48:40.645Z,4.22
2019-04-22T09:53:39.148Z,5.53
2019-04-22T09:58:31.686Z,3.92
2019-04-22T10:03:25.913Z,5.85
2019-04-22T10:08:24.432Z,3.15
2019-04-22T10:13:18.716Z,4.92
2019-04-22T10:18:20.226Z,5.35
2019-04-22T10:23:17.705Z,4.15
2019-04-22T10:28:09.013Z,4.15
2019-04-22T10:33:01.429Z,3.47
2019-04-22T10:37:34.268Z,5.65
2019-04-22T10:42:31.257Z,4.17
2019-04-22T10:47:27.882Z,2.98
2019-04-22T10:52:23.695Z,3.30
2019-04-22T10:57:20.039Z,3.47
2019-04-22T11:02:14.812Z,5.67
2019-04-22T11:07:12.740Z,4.62
2019-04-22T11:12:13.058Z,3.45
2019-04-22T11:17:05.312Z,9.63
2019-04-22T11:22:07.720Z,3.30
2019-04-22T11:26:55.120Z,2.77
2019-04-22T11:31:50.526Z,2.95
2019-04-22T11:36:45.388Z,3.25
2019-04-22T11:41:40.311Z,3.25
2019-04-22T11:46:35.655Z,3.37
2019-04-22T11:51:31.805Z,6.28
2019-04-22T11:56:27.150Z,3.37
2019-04-22T12:01:22.083Z,2.47
2019-04-22T12:06:18.021Z,3.90
2019-04-22T12:11:13.702Z,3.17
2019-04-22T12:16:09.414Z,4.65
2019-04-22T12:21:05.422Z,7.45
2019-04-22T12:26:05.812Z,3.67
2019-04-22T12:30:57.404Z,5.75
2019-04-22T12:35:52.799Z,4.72
2019-04-22T12:40:55.297Z,6.20
2019-04-22T12:45:44.951Z,3.87
2019-04-22T12:50:43.442Z,3.35
2019-04-22T12:55:35.935Z,2.90
2019-04-22T13:00:32.320Z,4.08
2019-04-22T13:05:27.080Z,3.83
2019-04-22T13:10:24.072Z,6.10
2019-04-22T13:15:22.383Z,3.15
2019-04-22T13:20:19.826Z,3.47
2019-04-22T13:25:15.642Z,5.33
2019-04-22T13:30:14.688Z,3.83
2019-04-22T13:35:11.091Z,3.98
2019-04-22T13:40:08.641Z,6.50
2019-04-22T13:45:04.917Z,4.28
2019-04-22T13:50:36.515Z,4.60
2019-04-22T13:55:30.227Z,4.78
2019-04-22T13:59:56.283Z,4.17
2019-04-22T14:04:50.627Z,5.25
2019-04-22T14:09:46.553Z,3.55
2019-04-22T14:14:42.817Z,3.87
2019-04-22T14:19:38.975Z,5.22
2019-04-22T14:24:34.489Z,5.97
2019-04-22T14:29:29.473Z,5.25
2019-04-22T14:34:24.321Z,5.60
2019-04-22T14:39:19.862Z,4.33
2019-04-22T14:49:40.016Z,4.08
2019-04-22T14:54:22.657Z,3.42
2019-04-22T14:59:04.999Z,4.53
2019-04-22T15:04:00.782Z,5.20
2019-04-22T15:08:58.006Z,4.55
2019-04-22T15:13:53.474Z,5.62
2019-04-22T15:18:53.791Z,11.18
2019-04-22T15:23:48.724Z,5.95
2019-04-22T15:28:43.329Z,5.97
2019-04-22T15:33:39.272Z,5.50
2019-04-22T15:38:34.314Z,9.48
2019-04-22T15:43:31.249Z,14.03
2019-04-22T15:48:25.215Z,6.42
2019-04-22T15:53:20.095Z,10.75
2019-04-22T15:58:15.470Z,8.23
2019-04-22T16:03:12.484Z,6.60
2019-04-22T16:08:06.836Z,10.85
2019-04-22T16:13:09.366Z,11.35
2019-04-22T16:18:01.125Z,7.03
2019-04-22T16:22:59.309Z,8.73
2019-04-22T16:27:54.513Z,7.45
2019-04-22T16:32:51.674Z,7.22
2019-04-22T16:37:46.630Z,8.83
2019-04-22T16:42:48.881Z,7.15
2019-04-22T16:47:37.598Z,7.45
2019-04-22T16:52:32.308Z,6.70
2019-04-22T16:57:28.125Z,6.40
2019-04-22T17:02:24.776Z,9.80
2019-04-22T17:07:20.519Z,7.95
2019-04-22T17:12:16.165Z,6.90
2019-04-22T17:17:12.713Z,8.75
2019-04-22T17:22:07.924Z,10.53
2019-04-22T17:27:02.578Z,4.67
2019-04-22T17:32:05.540Z,4.03
2019-04-22T17:36:54.973Z,5.58
2019-04-22T17:42:08.281Z,9.30
2019-04-22T17:46:58.236Z,12.05
2019-04-22T17:57:19.313Z,11.88
2019-04-22T18:02:11.522Z,20.75
2019-04-22T18:07:18.455Z,10.95
2019-04-22T18:12:11.601Z,13.55
2019-04-22T18:17:08.409Z,14.87
2019-04-22T18:21:51.696Z,13.27
2019-04-22T18:27:03.274Z,12.33
2019-04-22T18:31:43.892Z,17.37
2019-04-22T18:36:45.777Z,11.47
2019-04-22T18:41:46.753Z,9.30
2019-04-22T18:46:43.053Z,6.67
2019-04-22T18:51:43.846Z,9.17
2019-04-22T18:56:52.526Z,10.90
2019-04-22T19:01:31.835Z,10.33
2019-04-22T19:06:52.287Z,17.40
2019-04-22T19:11:55.682Z,13.03
2019-04-22T19:16:39.740Z,14.27
2019-04-22T19:21:39.466Z,14.23
2019-04-22T19:26:47.837Z,17.50
2019-04-22T19:31:29.836Z,19.83
2019-04-22T19:36:25.752Z,13.13
2019-04-22T19:41:30.501Z,16.93
2019-04-22T19:46:19.467Z,16.90
2019-04-22T19:51:24.230Z,17.20
2019-04-22T19:56:07.105Z,19.27
2019-04-22T20:01:14.791Z,17.83
2019-04-22T20:06:35.276Z,18.83
2019-04-22T20:11:31.780Z,21.00
2019-04-22T20:16:25.204Z,18.07
2019-04-22T20:21:28.343Z,25.57
2019-04-22T20:26:16.183Z,17.40
2019-04-22T20:31:19.299Z,22.03
2019-04-22T20:36:36.516Z,26.27
2019-04-22T20:41:07.222Z,10.87
2019-04-22T20:46:11.281Z,18.07
2019-04-22T20:51:09.959Z,17.40
2019-04-22T20:56:01.144Z,19.07
2019-04-22T21:00:50.557Z,17.00
2019-04-22T21:05:44.509Z,20.00
2019-04-22T21:10:44.057Z,14.83
2019-04-22T21:15:49.280Z,14.40
2019-04-22T21:20:43.340Z,19.33
2019-04-22T21:25:30.775Z,14.60
2019-04-22T21:30:34.269Z,15.87
2019-04-22T21:35:50.313Z,19.07
2019-04-22T21:40:30.158Z,18.40
2019-04-22T21:45:23.947Z,19.17
2019-04-22T21:50:48.077Z,10.97
2019-04-22T21:55:45.243Z,18.57
2019-04-22T22:00:31.069Z,20.40
2019-04-22T22:05:10.094Z,14.03
2019-04-22T22:10:09.163Z,17.77
2019-04-22T22:15:09.779Z,15.77
2019-04-22T22:20:03.498Z,9.43
2019-04-22T22:25:04.296Z,12.53
2019-04-22T22:30:15.179Z,10.63
2019-04-22T22:34:58.413Z,12.80
2019-04-22T22:39:39.222Z,7.23
2019-04-22T22:44:33.335Z,11.20
2019-04-22T22:49:50.274Z,10.83
2019-04-22T22:54:39.273Z,11.30
2019-04-22T22:59:40.295Z,12.60
2019-04-22T23:04:37.166Z,13.40
2019-04-22T23:09:33.415Z,8.50
2019-04-22T23:14:26.572Z,9.20
2019-04-22T23:19:04.436Z,12.33
2019-04-22T23:24:17.338Z,14.37
2019-04-22T23:29:10.374Z,11.00
2019-04-22T23:34:14.309Z,9.30
2019-04-22T23:39:15.719Z,11.80
2019-04-22T23:44:13.494Z,11.53
2019-04-22T23:49:04.413Z,12.63
2019-04-22T23:54:11.069Z,8.27
2019-04-22T23:59:03.005Z,11.90
